createdAt,value
2023-01-26T00:01:14.340Z,-0.50
2023-01-26T00:03:41.401Z,-0.50
2023-01-26T00:06:10.776Z,-0.40
2023-01-26T00:08:44.959Z,-0.40
2023-01-26T00:11:14.775Z,-0.40
2023-01-26T00:13:42.042Z,-0.50
2023-01-26T00:16:11.996Z,-0.40
2023-01-26T00:18:40.025Z,-0.40
2023-01-26T00:21:08.319Z,-0.40
2023-01-26T00:23:35.881Z,-0.50
2023-01-26T00:26:05.593Z,-0.50
2023-01-26T00:28:32.494Z,-0.40
2023-01-26T00:31:07.962Z,-0.40
2023-01-26T00:33:34.807Z,-0.50
2023-01-26T00:36:01.534Z,-0.50
2023-01-26T00:38:28.433Z,-0.40
2023-01-26T00:40:55.313Z,-0.50
2023-01-26T00:43:22.247Z,-0.50
2023-01-26T00:45:49.491Z,-0.60
2023-01-26T00:48:16.691Z,-0.60
2023-01-26T00:50:43.580Z,-0.60
2023-01-26T00:53:10.624Z,-0.60
2023-01-26T00:55:37.978Z,-0.60
2023-01-26T00:58:06.745Z,-0.60
2023-01-26T01:00:34.938Z,-0.60
2023-01-26T01:03:02.353Z,-0.60
2023-01-26T01:05:31.553Z,-0.50
2023-01-26T01:07:58.627Z,-0.60
2023-01-26T01:10:27.547Z,-0.60
2023-01-26T01:12:55.205Z,-0.60
2023-01-26T01:15:21.985Z,-0.60
2023-01-26T01:17:48.856Z,-0.60
2023-01-26T01:20:15.977Z,-0.60
2023-01-26T01:22:45.591Z,-0.60
2023-01-26T01:25:12.456Z,-0.60
2023-01-26T01:27:39.478Z,-0.60
2023-01-26T01:30:08.313Z,-0.60
2023-01-26T01:32:41.366Z,-0.60
2023-01-26T01:35:08.515Z,-0.60
2023-01-26T01:37:36.715Z,-0.60
2023-01-26T01:40:03.730Z,-0.70
2023-01-26T01:42:30.499Z,-0.60
2023-01-26T01:45:39.308Z,-0.70
2023-01-26T01:48:30.417Z,-0.70
2023-01-26T01:51:21.570Z,-0.60
2023-01-26T01:53:51.607Z,-0.60
2023-01-26T01:56:22.956Z,-0.70
2023-01-26T01:58:54.355Z,-0.70
2023-01-26T02:01:21.335Z,-0.70
2023-01-26T02:03:53.370Z,-0.60
2023-01-26T02:06:27.003Z,-0.70
2023-01-26T02:08:56.214Z,-0.70
2023-01-26T02:11:32.838Z,-0.60
2023-01-26T02:14:02.715Z,-0.60
2023-01-26T02:16:29.442Z,-0.60
2023-01-26T02:18:56.381Z,-0.60
2023-01-26T02:21:24.407Z,-0.60
2023-01-26T02:24:00.168Z,-0.60
2023-01-26T02:26:29.560Z,-0.60
2023-01-26T02:28:56.642Z,-0.70
2023-01-26T02:31:25.271Z,-0.60
2023-01-26T02:33:52.479Z,-0.60
2023-01-26T02:36:30.305Z,-0.70
2023-01-26T02:39:14.863Z,-0.60
2023-01-26T02:42:01.090Z,-0.60
2023-01-26T02:44:29.207Z,-0.60
2023-01-26T02:46:56.405Z,-0.60
2023-01-26T02:49:41.711Z,-0.60
2023-01-26T02:52:08.881Z,-0.60
2023-01-26T02:54:54.604Z,-0.60
2023-01-26T02:57:21.513Z,-0.60
2023-01-26T02:59:48.376Z,-0.60
2023-01-26T03:02:15.843Z,-0.60
2023-01-26T03:04:43.339Z,-0.70
2023-01-26T03:07:10.717Z,-0.70
2023-01-26T03:09:37.731Z,-0.70
2023-01-26T03:12:04.754Z,-0.70
2023-01-26T03:14:31.442Z,-0.70
2023-01-26T03:16:58.151Z,-0.70
2023-01-26T03:19:43.584Z,-0.70
2023-01-26T03:22:30.194Z,-0.70
2023-01-26T03:25:15.673Z,-0.70
2023-01-26T03:27:46.058Z,-0.70
2023-01-26T03:30:15.240Z,-0.60
2023-01-26T03:32:41.987Z,-0.70
2023-01-26T03:35:15.284Z,-0.70
2023-01-26T03:37:43.803Z,-0.60
2023-01-26T03:40:30.616Z,-0.70
2023-01-26T03:43:16.184Z,-0.70
2023-01-26T03:46:01.700Z,-0.70
2023-01-26T03:48:47.331Z,-0.70
2023-01-26T03:51:32.887Z,-0.70
2023-01-26T03:54:18.315Z,-0.70
2023-01-26T03:56:45.057Z,-0.70
2023-01-26T03:59:15.224Z,-0.70
2023-01-26T04:02:03.163Z,-0.70
2023-01-26T04:04:48.495Z,-0.60
2023-01-26T04:07:33.996Z,-0.60
2023-01-26T04:10:00.968Z,-0.60
2023-01-26T04:12:27.772Z,-0.60
2023-01-26T04:15:13.039Z,-0.60
2023-01-26T04:17:58.378Z,-0.60
2023-01-26T04:20:43.629Z,-0.50
2023-01-26T04:23:20.937Z,-0.50
2023-01-26T04:25:48.599Z,-0.50
2023-01-26T04:28:15.545Z,-0.60
2023-01-26T04:30:42.381Z,-0.60
2023-01-26T04:33:09.113Z,-0.60
2023-01-26T04:35:35.859Z,-0.50
2023-01-26T04:38:02.595Z,-0.50
2023-01-26T04:40:29.443Z,-0.50
2023-01-26T04:42:56.166Z,-0.40
2023-01-26T04:45:22.970Z,-0.40
2023-01-26T04:47:50.844Z,-0.40
2023-01-26T04:50:17.660Z,-0.40
2023-01-26T04:52:44.482Z,-0.40
2023-01-26T04:55:11.190Z,-0.40
2023-01-26T04:57:37.989Z,-0.40
2023-01-26T05:00:05.449Z,-0.30
2023-01-26T05:02:32.247Z,-0.30
2023-01-26T05:04:59.015Z,-0.40
2023-01-26T05:07:25.744Z,-0.40
2023-01-26T05:09:52.621Z,-0.30
2023-01-26T05:12:34.361Z,-0.30
2023-01-26T05:15:01.210Z,-0.30
2023-01-26T05:17:27.997Z,-0.40
2023-01-26T05:19:54.702Z,-0.40
2023-01-26T05:22:21.465Z,-0.40
2023-01-26T05:24:49.543Z,-0.40
2023-01-26T05:27:22.556Z,-0.40
2023-01-26T05:29:50.491Z,-0.40
2023-01-26T05:32:17.637Z,-0.40
2023-01-26T05:34:44.469Z,-0.40
2023-01-26T05:37:13.646Z,-0.40
2023-01-26T05:39:41.406Z,-0.40
2023-01-26T05:42:08.348Z,-0.30
2023-01-26T05:44:36.395Z,-0.30
2023-01-26T05:47:03.139Z,-0.30
2023-01-26T05:49:30.087Z,-0.30
2023-01-26T05:51:57.170Z,-0.30
2023-01-26T05:54:24.070Z,-0.30
2023-01-26T05:56:51.312Z,-0.30
2023-01-26T05:59:18.205Z,-0.30
2023-01-26T06:01:45.156Z,-0.30
2023-01-26T06:04:14.899Z,-0.40
2023-01-26T06:06:41.631Z,-0.30
2023-01-26T06:09:08.596Z,-0.30
2023-01-26T06:11:35.361Z,-0.30
2023-01-26T06:14:02.300Z,-0.40
2023-01-26T06:16:29.199Z,-0.40
2023-01-26T06:18:56.124Z,-0.40
2023-01-26T06:21:22.969Z,-0.40
2023-01-26T06:23:49.734Z,-0.40
2023-01-26T06:26:16.524Z,-0.40
2023-01-26T06:28:43.531Z,-0.40
2023-01-26T06:31:10.940Z,-0.40
2023-01-26T06:33:38.706Z,-0.50
2023-01-26T06:36:10.070Z,-0.50
2023-01-26T06:38:37.289Z,-0.40
2023-01-26T06:41:06.726Z,-0.40
2023-01-26T06:43:35.435Z,-0.40
2023-01-26T06:46:03.946Z,-0.40
2023-01-26T06:48:33.526Z,-0.40
2023-01-26T06:51:15.419Z,-0.40
2023-01-26T06:53:51.558Z,-0.40
2023-01-26T06:56:18.758Z,-0.40
2023-01-26T06:58:45.592Z,-0.40
2023-01-26T07:01:21.769Z,-0.40
2023-01-26T07:03:49.215Z,-0.50
2023-01-26T07:06:16.190Z,-0.50
2023-01-26T07:08:42.883Z,-0.50
2023-01-26T07:11:10.452Z,-0.50
2023-01-26T07:13:37.239Z,-0.50
2023-01-26T07:16:06.482Z,-0.50
2023-01-26T07:18:34.102Z,-0.40
2023-01-26T07:21:01.978Z,-0.40
2023-01-26T07:23:29.414Z,-0.30
2023-01-26T07:25:56.425Z,-0.30
2023-01-26T07:28:23.583Z,-0.40
2023-01-26T07:30:50.307Z,-0.40
2023-01-26T07:33:18.273Z,-0.40
2023-01-26T07:35:45.042Z,-0.40
2023-01-26T07:38:11.898Z,-0.40
2023-01-26T07:40:38.649Z,-0.40
2023-01-26T07:43:05.405Z,-0.40
2023-01-26T07:45:33.022Z,-0.40
2023-01-26T07:47:59.718Z,-0.30
2023-01-26T07:50:29.834Z,-0.30
2023-01-26T07:52:56.674Z,-0.30
2023-01-26T07:55:28.026Z,-0.30
2023-01-26T07:57:54.799Z,-0.30
2023-01-26T08:00:21.636Z,-0.40
2023-01-26T08:02:52.000Z,-0.40
2023-01-26T08:05:18.877Z,-0.40
2023-01-26T08:07:45.790Z,-0.40
2023-01-26T08:10:14.502Z,-0.30
2023-01-26T08:12:41.459Z,-0.30
2023-01-26T08:15:08.833Z,-0.30
2023-01-26T08:17:36.170Z,-0.30
2023-01-26T08:20:03.706Z,-0.30
2023-01-26T08:22:30.535Z,-0.20
2023-01-26T08:25:00.184Z,-0.20
2023-01-26T08:27:26.966Z,-0.20
2023-01-26T08:29:53.801Z,-0.20
2023-01-26T08:32:20.672Z,-0.30
2023-01-26T08:34:47.455Z,-0.30
2023-01-26T08:37:14.230Z,-0.40
2023-01-26T08:39:41.043Z,-0.40
2023-01-26T08:42:10.456Z,-0.40
2023-01-26T08:44:37.170Z,-0.40
2023-01-26T08:47:03.945Z,-0.40
2023-01-26T08:49:30.889Z,-0.40
2023-01-26T08:51:57.822Z,-0.40
2023-01-26T08:54:24.918Z,-0.40
2023-01-26T08:56:51.706Z,-0.40
2023-01-26T08:59:18.458Z,-0.40
2023-01-26T09:01:45.235Z,-0.30
2023-01-26T09:04:15.070Z,-0.40
2023-01-26T09:06:41.815Z,-0.30
2023-01-26T09:09:13.131Z,-0.40
2023-01-26T09:11:40.653Z,-0.30
2023-01-26T09:14:07.434Z,-0.30
2023-01-26T09:16:34.326Z,-0.20
2023-01-26T09:19:01.399Z,-0.10
2023-01-26T09:21:28.116Z,-0.10
2023-01-26T09:23:57.343Z,-0.10
2023-01-26T09:26:27.355Z,-0.10
2023-01-26T09:28:57.141Z,-0.20
2023-01-26T09:31:24.463Z,-0.20
2023-01-26T09:33:52.112Z,-0.10
2023-01-26T09:36:19.423Z,0.10
2023-01-26T09:38:46.205Z,0.00
2023-01-26T09:41:41.224Z,0.00
2023-01-26T09:44:18.705Z,-0.10
2023-01-26T09:47:10.559Z,0.00
2023-01-26T09:50:04.066Z,0.00
2023-01-26T09:52:38.243Z,-0.10
2023-01-26T09:55:13.237Z,0.00
2023-01-26T09:57:46.568Z,0.00
2023-01-26T10:00:40.491Z,0.00
2023-01-26T10:03:10.988Z,0.00
2023-01-26T10:05:56.550Z,0.00
2023-01-26T10:08:23.810Z,0.00
2023-01-26T10:11:02.226Z,0.00
2023-01-26T10:13:30.396Z,0.00
2023-01-26T10:16:10.469Z,0.10
2023-01-26T10:18:57.297Z,0.00
2023-01-26T10:21:33.613Z,0.00
2023-01-26T10:24:02.964Z,-0.10
2023-01-26T10:26:33.755Z,0.00
2023-01-26T10:29:01.424Z,0.00
2023-01-26T10:31:33.159Z,0.10
2023-01-26T10:34:16.172Z,0.00
2023-01-26T10:36:45.495Z,0.00
2023-01-26T10:39:15.911Z,0.10
2023-01-26T10:42:03.441Z,0.00
2023-01-26T10:44:39.168Z,0.00
2023-01-26T10:47:13.673Z,0.10
2023-01-26T10:49:40.474Z,0.10
2023-01-26T10:52:29.263Z,0.00
2023-01-26T10:55:19.826Z,0.00
2023-01-26T10:57:46.717Z,0.00
2023-01-26T11:00:23.249Z,0.20
2023-01-26T11:02:53.175Z,0.20
2023-01-26T11:05:28.965Z,0.20
2023-01-26T11:08:06.926Z,0.20
2023-01-26T11:10:35.190Z,0.10
2023-01-26T11:13:17.588Z,0.20
2023-01-26T11:16:08.715Z,0.20
2023-01-26T11:18:43.757Z,0.20
2023-01-26T11:21:17.232Z,0.20
2023-01-26T11:23:56.171Z,0.20
2023-01-26T11:26:50.342Z,0.30
2023-01-26T11:30:06.253Z,0.30
2023-01-26T11:32:57.148Z,0.20
2023-01-26T11:35:29.820Z,0.30
2023-01-26T11:38:28.013Z,0.30
2023-01-26T11:41:20.529Z,0.30
2023-01-26T11:44:15.160Z,0.30
2023-01-26T11:47:08.363Z,0.30
2023-01-26T11:49:35.022Z,0.20
2023-01-26T11:52:31.281Z,0.20
2023-01-26T11:55:22.719Z,0.10
2023-01-26T11:58:05.388Z,0.30
2023-01-26T12:00:49.479Z,0.30
2023-01-26T12:03:26.096Z,0.20
2023-01-26T12:05:57.699Z,0.20
2023-01-26T12:08:39.122Z,0.20
2023-01-26T12:11:23.045Z,0.10
2023-01-26T12:14:18.756Z,0.10
2023-01-26T12:17:22.920Z,0.10
2023-01-26T12:19:54.861Z,0.20
2023-01-26T12:22:32.682Z,0.20
2023-01-26T12:25:24.229Z,0.20
2023-01-26T12:28:02.848Z,0.10
2023-01-26T12:31:02.660Z,0.00
2023-01-26T12:33:31.153Z,0.00
2023-01-26T12:36:13.441Z,0.00
2023-01-26T12:39:08.132Z,0.10
2023-01-26T12:41:52.946Z,0.10
2023-01-26T12:44:29.406Z,0.40
2023-01-26T12:47:24.629Z,0.10
2023-01-26T12:50:00.618Z,0.00
2023-01-26T12:52:38.722Z,0.00
2023-01-26T12:55:11.837Z,0.00
2023-01-26T12:57:48.912Z,0.00
2023-01-26T13:00:23.604Z,0.00
2023-01-26T13:02:59.483Z,0.00
2023-01-26T13:05:33.638Z,0.10
2023-01-26T13:08:31.464Z,0.10
2023-01-26T13:11:00.399Z,0.10
2023-01-26T13:13:51.723Z,0.00
2023-01-26T13:16:18.459Z,0.00
2023-01-26T13:18:52.521Z,0.00
2023-01-26T13:21:40.151Z,0.00
2023-01-26T13:24:19.300Z,0.00
2023-01-26T13:26:48.406Z,-0.10
2023-01-26T13:29:34.011Z,0.00
2023-01-26T13:32:22.442Z,0.00
2023-01-26T13:34:59.278Z,-0.20
2023-01-26T13:38:00.678Z,-0.10
2023-01-26T13:40:41.655Z,0.00
2023-01-26T13:43:25.597Z,0.10
2023-01-26T13:46:12.639Z,0.00
2023-01-26T13:48:54.128Z,-0.10
2023-01-26T13:51:25.853Z,-0.20
2023-01-26T13:53:58.325Z,-0.10
2023-01-26T13:56:34.508Z,-0.10
2023-01-26T13:59:20.771Z,-0.20
2023-01-26T14:01:49.861Z,-0.20
2023-01-26T14:04:22.707Z,-0.10
2023-01-26T14:07:01.054Z,-0.10
2023-01-26T14:09:31.529Z,-0.10
2023-01-26T14:12:04.283Z,-0.10
2023-01-26T14:14:36.850Z,-0.10
2023-01-26T14:17:08.936Z,-0.10
2023-01-26T14:19:41.766Z,-0.20
2023-01-26T14:22:15.573Z,-0.20
2023-01-26T14:24:43.205Z,-0.20
2023-01-26T14:27:33.928Z,-0.20
2023-01-26T14:30:02.128Z,-0.20
2023-01-26T14:32:29.902Z,-0.20
2023-01-26T14:34:59.514Z,-0.20
2023-01-26T14:37:27.476Z,-0.20
2023-01-26T14:40:19.489Z,-0.10
2023-01-26T14:42:52.459Z,-0.20
2023-01-26T14:45:33.050Z,-0.20
2023-01-26T14:48:07.511Z,-0.20
2023-01-26T14:50:35.873Z,-0.10
2023-01-26T14:53:04.526Z,-0.20
2023-01-26T14:55:36.421Z,-0.20
2023-01-26T14:58:12.928Z,-0.30
2023-01-26T15:00:39.889Z,-0.20
2023-01-26T15:03:23.843Z,-0.30
2023-01-26T15:06:23.910Z,-0.20
2023-01-26T15:09:26.888Z,-0.20
2023-01-26T15:12:15.520Z,-0.20
2023-01-26T15:14:57.536Z,-0.20
2023-01-26T15:17:42.011Z,-0.20
2023-01-26T15:20:14.579Z,-0.10
2023-01-26T15:22:48.553Z,-0.20
2023-01-26T15:25:27.619Z,-0.30
2023-01-26T15:27:59.647Z,-0.30
2023-01-26T15:30:32.633Z,-0.30
2023-01-26T15:32:59.995Z,-0.30
2023-01-26T15:35:34.684Z,-0.40
2023-01-26T15:38:01.485Z,-0.40
2023-01-26T15:40:28.747Z,-0.40
2023-01-26T15:43:12.921Z,-0.30
2023-01-26T15:45:43.517Z,-0.30
2023-01-26T15:48:10.306Z,-0.30
2023-01-26T15:50:37.068Z,-0.30
2023-01-26T15:53:03.924Z,-0.30
2023-01-26T15:55:32.810Z,-0.20
2023-01-26T15:58:00.743Z,-0.20
2023-01-26T16:00:27.517Z,-0.30
2023-01-26T16:02:54.409Z,-0.20
2023-01-26T16:05:24.748Z,-0.20
2023-01-26T16:07:52.631Z,-0.20
2023-01-26T16:10:19.789Z,-0.20
2023-01-26T16:12:49.791Z,-0.30
2023-01-26T16:15:41.469Z,-0.20
2023-01-26T16:18:08.274Z,-0.20
2023-01-26T16:20:38.195Z,-0.20
2023-01-26T16:23:39.434Z,-0.20
2023-01-26T16:26:09.041Z,-0.30
2023-01-26T16:28:35.784Z,-0.20
2023-01-26T16:31:04.994Z,-0.20
2023-01-26T16:33:31.810Z,-0.20
2023-01-26T16:36:01.252Z,-0.20
2023-01-26T16:38:28.007Z,-0.20
2023-01-26T16:40:54.991Z,-0.20
2023-01-26T16:43:25.767Z,-0.10
2023-01-26T16:45:53.114Z,-0.10
2023-01-26T16:48:20.675Z,-0.20
2023-01-26T16:50:52.266Z,-0.10
2023-01-26T16:53:22.845Z,-0.10
2023-01-26T16:55:49.565Z,-0.10
2023-01-26T16:58:16.405Z,-0.10
2023-01-26T17:00:43.764Z,-0.10
2023-01-26T17:03:13.133Z,-0.10
2023-01-26T17:05:40.884Z,-0.20
2023-01-26T17:08:08.173Z,-0.10
2023-01-26T17:10:35.151Z,-0.10
2023-01-26T17:13:02.019Z,-0.10
2023-01-26T17:15:29.306Z,-0.20
2023-01-26T17:17:56.898Z,-0.20
2023-01-26T17:20:23.860Z,-0.20
2023-01-26T17:22:50.765Z,-0.20
2023-01-26T17:25:18.825Z,-0.20
2023-01-26T17:27:46.659Z,-0.20
2023-01-26T17:30:13.890Z,-0.20
2023-01-26T17:32:42.699Z,-0.20
2023-01-26T17:35:10.075Z,-0.20
2023-01-26T17:37:38.054Z,-0.20
2023-01-26T17:40:05.528Z,-0.10
2023-01-26T17:42:34.865Z,-0.10
2023-01-26T17:45:02.396Z,-0.10
2023-01-26T17:47:31.232Z,-0.10
2023-01-26T17:49:58.005Z,-0.10
2023-01-26T17:52:24.726Z,-0.10
2023-01-26T17:54:51.547Z,0.00
2023-01-26T17:57:18.366Z,-0.10
2023-01-26T17:59:45.174Z,0.00
2023-01-26T18:02:12.099Z,0.20
2023-01-26T18:04:39.003Z,0.20
2023-01-26T18:07:05.800Z,0.10
2023-01-26T18:09:32.546Z,0.10
2023-01-26T18:11:59.368Z,0.10
2023-01-26T18:14:27.246Z,0.00
2023-01-26T18:16:54.124Z,0.00
2023-01-26T18:19:21.132Z,0.10
2023-01-26T18:21:49.584Z,0.10
2023-01-26T18:24:17.918Z,0.10
2023-01-26T18:26:45.010Z,0.00
2023-01-26T18:29:12.045Z,0.00
2023-01-26T18:31:43.503Z,-0.10
2023-01-26T18:34:11.349Z,-0.10
2023-01-26T18:36:38.103Z,-0.10
2023-01-26T18:39:08.964Z,-0.10
2023-01-26T18:41:35.886Z,-0.10
2023-01-26T18:44:03.765Z,0.00
2023-01-26T18:46:31.326Z,-0.10
2023-01-26T18:49:03.109Z,-0.10
2023-01-26T18:51:38.748Z,0.30
2023-01-26T18:54:05.810Z,0.10
2023-01-26T18:56:32.845Z,0.00
2023-01-26T18:58:59.732Z,0.00
2023-01-26T19:01:26.881Z,-0.10
2023-01-26T19:03:55.397Z,-0.10
2023-01-26T19:06:24.009Z,-0.10
2023-01-26T19:08:58.687Z,-0.10
2023-01-26T19:11:27.776Z,-0.10
2023-01-26T19:13:54.981Z,0.00
2023-01-26T19:16:22.087Z,-0.10
2023-01-26T19:18:49.853Z,-0.10
2023-01-26T19:21:21.420Z,-0.10
2023-01-26T19:23:49.045Z,-0.10
2023-01-26T19:26:18.203Z,-0.10
2023-01-26T19:28:45.527Z,-0.10
2023-01-26T19:31:13.302Z,0.00
2023-01-26T19:33:40.363Z,-0.10
2023-01-26T19:36:08.702Z,-0.10
2023-01-26T19:38:39.267Z,-0.10
2023-01-26T19:41:06.685Z,-0.10
2023-01-26T19:43:33.427Z,0.00
2023-01-26T19:46:00.426Z,0.00
2023-01-26T19:48:27.791Z,-0.10
2023-01-26T19:51:06.564Z,0.00
2023-01-26T19:53:35.305Z,0.00
2023-01-26T19:56:32.931Z,-0.10
2023-01-26T19:59:05.631Z,0.00
2023-01-26T20:01:33.288Z,-0.10
2023-01-26T20:04:05.432Z,-0.10
2023-01-26T20:06:33.901Z,-0.10
2023-01-26T20:09:00.995Z,0.00
2023-01-26T20:11:29.743Z,0.00
2023-01-26T20:13:57.743Z,0.00
2023-01-26T20:16:27.927Z,0.00
2023-01-26T20:18:55.684Z,-0.10
2023-01-26T20:21:22.748Z,-0.10
2023-01-26T20:23:54.986Z,-0.20
2023-01-26T20:26:23.406Z,-0.30
2023-01-26T20:28:50.357Z,-0.20
2023-01-26T20:31:19.634Z,-0.20
2023-01-26T20:33:48.186Z,-0.30
2023-01-26T20:36:17.448Z,-0.20
2023-01-26T20:38:45.093Z,-0.20
2023-01-26T20:41:14.586Z,-0.20
2023-01-26T20:43:58.215Z,-0.30
2023-01-26T20:46:29.404Z,-0.30
2023-01-26T20:48:56.885Z,-0.30
2023-01-26T20:51:28.694Z,-0.30
2023-01-26T20:53:55.819Z,-0.30
2023-01-26T20:56:23.699Z,-0.30
2023-01-26T20:58:53.669Z,-0.30
2023-01-26T21:01:21.372Z,-0.30
2023-01-26T21:03:48.155Z,-0.30
2023-01-26T21:06:20.787Z,-0.30
2023-01-26T21:08:48.755Z,-0.40
2023-01-26T21:11:17.235Z,-0.30
2023-01-26T21:13:44.367Z,-0.30
2023-01-26T21:16:13.955Z,-0.30
2023-01-26T21:18:41.152Z,-0.40
2023-01-26T21:21:10.481Z,-0.40
2023-01-26T21:23:37.202Z,-0.40
2023-01-26T21:26:12.449Z,-0.40
2023-01-26T21:28:39.364Z,-0.40
2023-01-26T21:31:07.343Z,-0.30
2023-01-26T21:33:37.335Z,-0.30
2023-01-26T21:36:06.360Z,-0.30
2023-01-26T21:38:35.553Z,-0.30
2023-01-26T21:41:29.538Z,-0.30
2023-01-26T21:44:13.558Z,-0.40
2023-01-26T21:46:41.042Z,-0.40
2023-01-26T21:49:09.395Z,-0.40
2023-01-26T21:51:59.591Z,-0.40
2023-01-26T21:54:29.982Z,-0.40
2023-01-26T21:56:57.922Z,-0.50
2023-01-26T21:59:24.685Z,-0.40
2023-01-26T22:01:53.963Z,-0.40
2023-01-26T22:04:22.372Z,-0.40
2023-01-26T22:06:49.871Z,-0.40
2023-01-26T22:09:17.482Z,-0.50
2023-01-26T22:11:45.324Z,-0.50
2023-01-26T22:14:16.407Z,-0.50
2023-01-26T22:16:43.457Z,-0.50
2023-01-26T22:19:11.040Z,-0.50
2023-01-26T22:21:38.038Z,-0.40
2023-01-26T22:24:05.623Z,-0.50
2023-01-26T22:26:32.589Z,-0.40
2023-01-26T22:29:00.520Z,-0.40
2023-01-26T22:31:29.497Z,-0.50
2023-01-26T22:33:58.472Z,-0.50
2023-01-26T22:36:26.722Z,-0.40
2023-01-26T22:38:54.029Z,-0.50
2023-01-26T22:41:26.750Z,-0.50
2023-01-26T22:43:56.433Z,-0.40
2023-01-26T22:46:24.889Z,-0.40
2023-01-26T22:48:52.019Z,-0.40
2023-01-26T22:51:21.366Z,-0.40
2023-01-26T22:53:50.001Z,-0.40
2023-01-26T22:56:17.438Z,-0.40
2023-01-26T22:58:57.761Z,-0.40
2023-01-26T23:01:28.067Z,-0.40
2023-01-26T23:03:55.912Z,-0.40
2023-01-26T23:06:23.485Z,-0.40
2023-01-26T23:08:50.457Z,-0.40
2023-01-26T23:11:24.571Z,-0.40
2023-01-26T23:13:52.894Z,-0.40
2023-01-26T23:16:21.297Z,-0.40
2023-01-26T23:18:48.214Z,-0.40
2023-01-26T23:21:15.051Z,-0.40
2023-01-26T23:23:42.060Z,-0.40
2023-01-26T23:26:09.677Z,-0.40
2023-01-26T23:28:39.019Z,-0.40
2023-01-26T23:31:07.206Z,-0.40
2023-01-26T23:33:35.198Z,-0.40
2023-01-26T23:36:02.553Z,-0.40
2023-01-26T23:38:30.116Z,-0.40
2023-01-26T23:40:57.970Z,-0.40
2023-01-26T23:43:24.780Z,-0.40
2023-01-26T23:45:52.087Z,-0.40
2023-01-26T23:48:19.647Z,-0.40
2023-01-26T23:50:47.030Z,-0.40
2023-01-26T23:53:14.754Z,-0.40
2023-01-26T23:55:43.327Z,-0.40
2023-01-26T23:58:11.089Z,-0.30
